createdAt,value
2019-06-07T00:00:53.894Z,17.95
2019-06-07T00:03:41.001Z,17.52
2019-06-07T00:06:43.382Z,19.30
2019-06-07T00:18:51.377Z,16.50
2019-06-07T00:22:13.797Z,16.25
2019-06-07T00:24:26.737Z,17.67
2019-06-07T00:27:15.129Z,15.27
2019-06-07T00:30:29.577Z,17.58
2019-06-07T00:32:49.825Z,19.90
2019-06-07T00:35:37.739Z,16.50
2019-06-07T00:38:25.086Z,18.77
2019-06-07T00:44:23.255Z,16.55
2019-06-07T00:47:08.876Z,19.77
2019-06-07T00:49:57.606Z,16.80
2019-06-07T00:58:40.160Z,17.40
2019-06-07T01:01:29.489Z,17.40
2019-06-07T01:04:19.444Z,15.85
2019-06-07T01:07:06.399Z,18.92
2019-06-07T01:09:54.190Z,17.33
2019-06-07T01:28:21.388Z,21.12
2019-06-07T01:31:17.030Z,18.65
2019-06-07T01:34:07.954Z,14.80
2019-06-07T01:36:54.857Z,14.98
2019-06-07T01:45:54.386Z,20.33
2019-06-07T01:51:48.774Z,17.75
2019-06-07T01:54:58.350Z,18.33
2019-06-07T01:57:38.030Z,17.48
2019-06-07T02:00:14.572Z,17.60
2019-06-07T02:09:13.630Z,18.80
2019-06-07T02:15:07.350Z,21.50
2019-06-07T02:17:58.647Z,20.33
2019-06-07T02:20:46.478Z,18.90
2019-06-07T02:23:33.909Z,21.67
2019-06-07T02:38:47.294Z,18.30
2019-06-07T02:41:39.231Z,21.45
2019-06-07T02:44:25.865Z,20.33
2019-06-07T02:47:11.278Z,22.13
2019-06-07T02:49:58.601Z,22.30
2019-06-07T02:52:49.912Z,21.93
2019-06-07T02:56:33.127Z,19.25
2019-06-07T02:58:31.172Z,21.80
2019-06-07T03:01:15.615Z,20.52
2019-06-07T03:04:02.947Z,18.37
2019-06-07T03:06:50.154Z,20.15
2019-06-07T03:09:48.682Z,26.40
2019-06-07T03:12:39.234Z,17.42
2019-06-07T03:25:06.043Z,19.48
2019-06-07T03:27:53.690Z,20.98
2019-06-07T03:31:00.348Z,18.80
2019-06-07T03:33:45.309Z,21.83
2019-06-07T03:36:29.828Z,22.35
2019-06-07T03:39:20.309Z,19.52
2019-06-07T03:42:08.576Z,19.67
2019-06-07T03:44:54.267Z,21.27
2019-06-07T03:47:48.413Z,22.85
2019-06-07T03:50:38.817Z,19.80
2019-06-07T04:02:42.510Z,25.12
2019-06-07T04:05:32.878Z,22.25
2019-06-07T04:08:18.054Z,24.02
2019-06-07T04:11:05.893Z,20.12
2019-06-07T04:13:53.720Z,19.23
2019-06-07T04:16:44.594Z,23.67
2019-06-07T04:19:37.289Z,19.42
2019-06-07T04:22:28.847Z,21.52
2019-06-07T04:25:21.019Z,22.58
2019-06-07T04:31:15.391Z,22.15
2019-06-07T04:34:03.461Z,20.23
2019-06-07T04:36:58.806Z,20.70
2019-06-07T04:39:41.680Z,22.37
2019-06-07T04:42:24.191Z,20.50
2019-06-07T04:45:32.373Z,21.80
2019-06-07T04:51:04.942Z,19.37
2019-06-07T04:53:55.616Z,19.77
2019-06-07T04:56:50.224Z,18.75
2019-06-07T05:02:29.551Z,19.05
2019-06-07T05:05:23.340Z,18.45
2019-06-07T05:11:23.598Z,16.95
2019-06-07T05:20:22.532Z,15.35
2019-06-07T05:23:10.747Z,15.27
2019-06-07T05:29:12.734Z,13.95
2019-06-07T05:31:59.509Z,15.48
2019-06-07T05:34:47.264Z,16.17
2019-06-07T05:37:33.930Z,15.27
2019-06-07T05:40:21.391Z,15.35
2019-06-07T05:43:08.024Z,13.95
2019-06-07T05:45:59.025Z,13.73
2019-06-07T05:48:45.844Z,16.60
2019-06-07T05:51:34.622Z,14.30
2019-06-07T05:54:20.695Z,14.30
2019-06-07T06:00:14.134Z,13.90
2019-06-07T06:06:10.295Z,14.13
2019-06-07T06:09:13.445Z,15.27
2019-06-07T06:11:58.616Z,14.05
2019-06-07T06:14:32.418Z,12.52
2019-06-07T06:17:19.865Z,14.27
2019-06-07T06:20:06.809Z,16.43
2019-06-07T06:22:54.243Z,15.88
2019-06-07T06:25:45.068Z,16.25
2019-06-07T06:28:29.149Z,13.93
2019-06-07T06:31:16.597Z,13.93
2019-06-07T06:34:03.284Z,15.88
2019-06-07T06:36:51.270Z,14.20
2019-06-07T06:39:39.601Z,19.58
2019-06-07T06:42:27.128Z,15.82
2019-06-07T06:45:13.930Z,13.27
2019-06-07T06:48:00.889Z,14.77
2019-06-07T06:53:54.108Z,15.13
2019-06-07T06:56:44.862Z,16.75
2019-06-07T06:59:39.714Z,14.75
2019-06-07T07:02:17.314Z,14.13
2019-06-07T07:05:04.168Z,14.75
2019-06-07T07:10:58.219Z,15.50
2019-06-07T07:13:56.893Z,15.07
2019-06-07T07:16:45.781Z,14.73
2019-06-07T07:19:31.451Z,14.65
2019-06-07T07:25:25.081Z,14.57
2019-06-07T07:28:12.011Z,14.87
2019-06-07T07:30:59.851Z,15.65
2019-06-07T07:36:39.203Z,15.75
2019-06-07T07:39:21.741Z,15.23
2019-06-07T07:42:20.827Z,14.45
2019-06-07T07:45:09.986Z,14.73
2019-06-07T07:48:13.305Z,14.20
2019-06-07T07:53:15.941Z,14.80
2019-06-07T07:56:02.955Z,14.32
2019-06-07T07:58:55.037Z,17.05
2019-06-07T08:01:37.658Z,13.77
2019-06-07T08:05:12.054Z,15.65
2019-06-07T08:07:12.478Z,15.85
2019-06-07T08:10:03.585Z,14.00
2019-06-07T08:13:12.884Z,13.35
2019-06-07T08:15:34.267Z,12.63
2019-06-07T08:18:21.406Z,13.20
2019-06-07T08:21:23.143Z,14.13
2019-06-07T08:23:58.257Z,11.65
2019-06-07T08:26:42.110Z,10.48
2019-06-07T08:29:44.497Z,11.32
2019-06-07T08:32:16.862Z,13.87
2019-06-07T08:35:06.525Z,13.18
2019-06-07T08:40:38.281Z,11.90
2019-06-07T08:43:26.316Z,13.15
2019-06-07T08:46:12.926Z,11.93
2019-06-07T08:49:04.265Z,10.93
2019-06-07T08:51:46.382Z,9.90
2019-06-07T08:54:33.571Z,10.05
2019-06-07T08:57:21.862Z,8.63
2019-06-07T09:00:42.206Z,8.80
2019-06-07T09:02:58.880Z,9.82
2019-06-07T09:05:43.756Z,9.40
2019-06-07T09:08:31.163Z,9.80
2019-06-07T09:11:17.898Z,9.90
2019-06-07T09:14:08.766Z,9.90
2019-06-07T09:16:55.394Z,11.38
2019-06-07T09:19:39.482Z,11.25
2019-06-07T09:22:26.292Z,7.70
2019-06-07T09:25:21.325Z,10.73
2019-06-07T09:28:15.804Z,11.57
2019-06-07T09:30:53.587Z,10.98
2019-06-07T09:33:40.967Z,9.43
2019-06-07T09:36:28.196Z,9.65
2019-06-07T09:39:18.662Z,9.63
2019-06-07T09:42:09.954Z,9.55
2019-06-07T09:45:30.736Z,10.48
2019-06-07T09:49:08.452Z,10.88
2019-06-07T09:51:18.056Z,10.00
2019-06-07T09:53:52.587Z,10.30
2019-06-07T09:56:40.510Z,10.90
2019-06-07T09:59:28.297Z,10.88
2019-06-07T10:02:14.754Z,12.20
2019-06-07T10:05:16.513Z,11.05
2019-06-07T10:08:16.013Z,11.93
2019-06-07T10:10:51.063Z,12.70
2019-06-07T10:13:39.173Z,11.60
2019-06-07T10:16:26.210Z,11.12
2019-06-07T10:19:13.848Z,11.02
2019-06-07T10:22:01.375Z,10.88
2019-06-07T10:24:47.768Z,9.35
2019-06-07T10:27:35.094Z,10.63
2019-06-07T10:30:23.327Z,10.18
2019-06-07T10:33:10.656Z,10.18
2019-06-07T10:35:57.556Z,9.77
2019-06-07T10:38:47.559Z,10.38
2019-06-07T10:41:35.071Z,7.78
2019-06-07T10:44:22.293Z,9.30
2019-06-07T10:47:10.084Z,10.10
2019-06-07T10:49:57.013Z,9.48
2019-06-07T10:52:44.152Z,9.90
2019-06-07T10:55:30.958Z,7.55
2019-06-07T10:58:18.073Z,8.52
2019-06-07T11:01:07.255Z,8.45
2019-06-07T11:03:53.240Z,8.25
2019-06-07T11:06:40.218Z,7.25
2019-06-07T11:09:27.045Z,7.62
2019-06-07T11:12:17.344Z,8.48
2019-06-07T11:15:08.841Z,7.47
2019-06-07T11:17:54.524Z,7.85
2019-06-07T11:20:41.657Z,12.18
2019-06-07T11:23:28.857Z,6.80
2019-06-07T11:26:15.770Z,7.78
2019-06-07T11:29:03.116Z,8.25
2019-06-07T11:31:50.431Z,8.43
2019-06-07T11:34:37.549Z,7.57
2019-06-07T11:37:24.782Z,7.43
2019-06-07T11:40:34.893Z,8.43
2019-06-07T11:42:59.304Z,8.95
2019-06-07T11:45:47.239Z,8.45
2019-06-07T11:48:34.164Z,8.45
2019-06-07T11:51:21.561Z,8.82
2019-06-07T11:54:09.649Z,9.20
2019-06-07T11:56:55.987Z,8.60
2019-06-07T11:59:43.317Z,8.88
2019-06-07T12:02:30.544Z,9.25
2019-06-07T12:05:20.119Z,9.20
2019-06-07T12:08:04.574Z,8.35
2019-06-07T12:10:51.795Z,7.70
2019-06-07T12:13:39.219Z,8.77
2019-06-07T12:16:26.671Z,7.60
2019-06-07T12:19:13.737Z,7.37
2019-06-07T12:22:00.856Z,9.60
2019-06-07T12:24:48.120Z,8.77
2019-06-07T12:27:35.032Z,8.50
2019-06-07T12:30:27.373Z,7.12
2019-06-07T12:33:08.823Z,7.15
2019-06-07T12:35:56.105Z,6.45
2019-06-07T12:38:43.059Z,6.72
2019-06-07T12:41:30.158Z,5.78
2019-06-07T12:44:18.605Z,6.10
2019-06-07T12:47:04.494Z,5.70
2019-06-07T12:49:53.373Z,5.57
2019-06-07T12:52:40.368Z,4.75
2019-06-07T12:55:27.523Z,4.82
2019-06-07T12:58:15.807Z,6.22
2019-06-07T13:01:02.062Z,5.40
2019-06-07T13:03:49.332Z,5.57
2019-06-07T13:06:38.041Z,4.45
2019-06-07T13:09:24.440Z,5.20
2019-06-07T13:12:12.879Z,6.28
2019-06-07T13:14:59.644Z,5.57
2019-06-07T13:17:46.421Z,8.15
2019-06-07T13:20:34.125Z,5.32
2019-06-07T13:23:22.602Z,5.37
2019-06-07T13:26:08.771Z,4.62
2019-06-07T13:28:55.883Z,5.07
2019-06-07T13:31:43.827Z,5.47
2019-06-07T13:34:30.582Z,4.62
2019-06-07T13:37:19.529Z,5.53
2019-06-07T13:40:04.517Z,4.72
2019-06-07T13:42:54.465Z,5.33
2019-06-07T13:45:41.468Z,4.12
2019-06-07T13:48:28.179Z,4.70
2019-06-07T13:51:15.441Z,3.90
2019-06-07T13:54:02.938Z,4.72
2019-06-07T13:57:01.949Z,5.55
2019-06-07T13:59:36.996Z,3.80
2019-06-07T14:02:29.856Z,8.52
2019-06-07T14:05:15.890Z,4.87
2019-06-07T14:08:12.421Z,4.75
2019-06-07T14:10:59.167Z,4.50
2019-06-07T14:13:46.240Z,4.37
2019-06-07T14:19:38.587Z,4.30
2019-06-07T14:25:50.396Z,3.90
2019-06-07T14:28:37.317Z,5.18
2019-06-07T14:31:26.306Z,5.68
2019-06-07T14:34:16.870Z,5.05
2019-06-07T14:40:10.048Z,4.12
2019-06-07T14:42:58.060Z,3.75
2019-06-07T14:45:44.657Z,4.00
2019-06-07T14:48:32.718Z,3.50
2019-06-07T14:51:18.400Z,3.90
2019-06-07T14:54:05.195Z,4.03
2019-06-07T14:56:53.659Z,3.97
2019-06-07T14:59:40.447Z,3.80
2019-06-07T15:02:28.393Z,4.43
2019-06-07T15:05:14.088Z,4.43
2019-06-07T15:08:02.329Z,4.03
2019-06-07T15:10:49.752Z,4.20
2019-06-07T15:13:51.186Z,3.95
2019-06-07T15:16:38.422Z,6.57
2019-06-07T15:19:26.629Z,3.72
2019-06-07T15:22:14.090Z,3.80
2019-06-07T15:25:00.914Z,4.18
2019-06-07T15:27:55.058Z,4.00
2019-06-07T15:30:43.413Z,7.03
2019-06-07T15:33:31.748Z,4.62
2019-06-07T15:39:23.893Z,5.32
2019-06-07T15:42:12.428Z,5.28
2019-06-07T15:44:59.103Z,4.85
2019-06-07T15:47:46.354Z,4.03
2019-06-07T15:50:34.381Z,4.87
2019-06-07T15:53:24.951Z,5.70
2019-06-07T15:59:17.964Z,5.25
2019-06-07T16:02:04.967Z,5.35
2019-06-07T16:04:52.895Z,6.07
2019-06-07T16:07:40.456Z,5.22
2019-06-07T16:10:26.427Z,6.03
2019-06-07T16:13:13.440Z,5.18
2019-06-07T16:16:00.464Z,6.35
2019-06-07T16:18:48.602Z,6.70
2019-06-07T16:21:37.303Z,5.95
2019-06-07T16:24:23.057Z,7.20
2019-06-07T16:27:10.361Z,7.30
2019-06-07T16:29:57.675Z,7.00
2019-06-07T16:32:46.308Z,7.18
2019-06-07T16:35:33.419Z,8.25
2019-06-07T16:38:24.840Z,7.65
2019-06-07T16:41:12.060Z,8.32
2019-06-07T16:43:59.099Z,7.78
2019-06-07T16:46:46.299Z,7.78
2019-06-07T16:49:33.951Z,7.90
2019-06-07T16:52:20.830Z,8.10
2019-06-07T16:55:07.769Z,8.02
2019-06-07T16:57:54.768Z,8.05
2019-06-07T17:00:42.231Z,7.97
2019-06-07T17:03:28.802Z,8.35
2019-06-07T17:06:16.523Z,7.68
2019-06-07T17:09:03.838Z,7.15
2019-06-07T17:11:50.767Z,7.57
2019-06-07T17:14:40.455Z,6.37
2019-06-07T17:17:27.246Z,6.90
2019-06-07T17:23:20.615Z,5.70
2019-06-07T17:26:08.027Z,6.37
2019-06-07T17:28:56.644Z,5.85
2019-06-07T17:34:50.294Z,5.47
2019-06-07T17:37:37.240Z,4.78
2019-06-07T17:40:24.315Z,5.18
2019-06-07T17:43:11.474Z,4.70
2019-06-07T17:45:58.541Z,4.55
2019-06-07T17:48:46.045Z,4.45
2019-06-07T17:51:33.335Z,9.32
2019-06-07T17:57:26.299Z,4.55
2019-06-07T18:03:19.466Z,4.75
2019-06-07T18:06:07.420Z,7.07
2019-06-07T18:08:54.554Z,4.97
2019-06-07T18:11:43.921Z,4.82
2019-06-07T18:14:35.643Z,4.68
2019-06-07T18:17:33.702Z,4.78
2019-06-07T18:23:13.714Z,5.80
2019-06-07T18:26:14.194Z,5.50
2019-06-07T18:29:01.103Z,6.68
2019-06-07T18:31:48.767Z,6.57
2019-06-07T18:34:35.464Z,6.30
2019-06-07T18:37:28.533Z,7.05
2019-06-07T18:40:15.749Z,6.65
2019-06-07T18:43:04.093Z,6.15
2019-06-07T18:45:51.573Z,7.07
2019-06-07T18:48:38.615Z,7.28
2019-06-07T18:51:26.062Z,6.37
2019-06-07T18:54:13.492Z,6.62
2019-06-07T18:57:03.273Z,7.00
2019-06-07T18:59:50.238Z,10.32
2019-06-07T19:02:37.370Z,7.43
2019-06-07T19:05:24.616Z,7.78
2019-06-07T19:12:19.495Z,7.57
2019-06-07T19:15:12.444Z,7.45
2019-06-07T19:18:00.925Z,6.55
2019-06-07T19:24:50.020Z,7.50
2019-06-07T19:27:39.916Z,7.32
2019-06-07T19:30:26.939Z,7.03
2019-06-07T19:33:14.120Z,9.18
2019-06-07T19:36:01.750Z,8.40
2019-06-07T19:38:48.764Z,7.47
2019-06-07T19:41:36.314Z,8.18
2019-06-07T19:44:23.624Z,8.55
2019-06-07T19:47:11.358Z,7.75
2019-06-07T19:49:58.846Z,8.07
2019-06-07T19:52:45.792Z,8.80
2019-06-07T19:58:39.479Z,9.50
2019-06-07T20:01:26.694Z,9.32
2019-06-07T20:04:14.705Z,9.30
2019-06-07T20:07:03.976Z,10.32
2019-06-07T20:09:58.708Z,9.80
2019-06-07T20:12:45.033Z,10.30
2019-06-07T20:15:50.955Z,11.48
2019-06-07T20:18:53.274Z,11.02
2019-06-07T20:21:49.567Z,11.07
2019-06-07T20:28:32.282Z,11.35
2019-06-07T20:31:19.219Z,11.10
2019-06-07T20:34:06.512Z,11.27
2019-06-07T20:36:53.463Z,12.88
2019-06-07T20:39:40.877Z,12.05
2019-06-07T20:42:28.321Z,14.53
2019-06-07T20:45:15.743Z,13.35
2019-06-07T20:48:04.271Z,12.00
2019-06-07T20:50:52.532Z,13.45
2019-06-07T20:53:45.076Z,12.35
2019-06-07T20:56:34.193Z,11.80
2019-06-07T20:59:21.730Z,12.90
2019-06-07T21:02:14.257Z,12.40
2019-06-07T21:05:01.444Z,12.50
2019-06-07T21:07:48.894Z,12.02
2019-06-07T21:14:38.526Z,12.65
2019-06-07T21:17:25.542Z,14.40
2019-06-07T21:20:14.478Z,14.30
2019-06-07T21:27:09.520Z,15.55
2019-06-07T21:34:07.651Z,16.45
2019-06-07T21:36:50.922Z,16.27
2019-06-07T21:39:37.080Z,13.32
2019-06-07T21:42:25.586Z,13.52
2019-06-07T22:47:46.033Z,7.70
2019-06-07T22:51:22.883Z,6.72
2019-06-07T22:54:31.886Z,4.43
2019-06-07T22:57:22.286Z,6.00
2019-06-07T23:00:12.235Z,4.10
2019-06-07T23:02:56.538Z,4.72
2019-06-07T23:05:51.207Z,4.60
2019-06-07T23:12:58.367Z,5.70
2019-06-07T23:15:46.814Z,4.05
2019-06-07T23:21:39.993Z,6.95
2019-06-07T23:24:27.414Z,4.28
2019-06-07T23:27:16.444Z,2.60
2019-06-07T23:30:08.417Z,7.35
2019-06-07T23:32:50.290Z,2.30
2019-06-07T23:35:37.426Z,2.45
2019-06-07T23:38:24.369Z,3.35
2019-06-07T23:41:11.582Z,4.07
2019-06-07T23:43:58.525Z,5.85
2019-06-07T23:50:55.315Z,4.10
2019-06-07T23:54:52.498Z,0.90
